Time;durP1;ratioP1;P1;durP2;ratioP2;P2;SDS_P1;SDS_P2;PMS_P1;PMS_P2;Temp;Humidity;BMP_temperature;BMP_pressure;BME280_temperature;BME280_humidity;BME280_pressure;Samples;Min_cycle;Max_cycle;Signal;HPM_P1;HPM_P2
2021/12/01 00:01:09;;;;;;;5.28;3.05;;;7.70;99.90;;;;;;5071643;28;20629;-66
2021/12/01 00:03:36;;;;;;;7.25;3.47;;;7.70;99.90;;;;;;5071581;28;20249;-65
2021/12/01 00:06:05;;;;;;;4.53;3.08;;;7.70;99.90;;;;;;5071389;28;20226;-66
2021/12/01 00:08:33;;;;;;;5.00;2.30;;;7.70;99.90;;;;;;5064966;28;20219;-66
2021/12/01 00:11:00;;;;;;;9.07;2.80;;;7.70;99.90;;;;;;5069740;28;20311;-66
2021/12/01 00:13:28;;;;;;;8.90;4.00;;;7.70;99.90;;;;;;5069276;28;20224;-65
2021/12/01 00:15:56;;;;;;;7.13;3.80;;;7.70;99.90;;;;;;5075647;28;20302;-66
2021/12/01 00:18:24;;;;;;;4.03;3.63;;;7.70;99.90;;;;;;5075845;28;20227;-65
2021/12/01 00:20:51;;;;;;;6.05;2.60;;;7.60;99.90;;;;;;5075143;28;20231;-66
2021/12/01 00:23:18;;;;;;;8.60;2.40;;;7.60;99.90;;;;;;5074896;28;20231;-65
2021/12/01 00:25:45;;;;;;;5.70;2.53;;;7.50;99.90;;;;;;5070267;28;20224;-65
2021/12/01 00:28:12;;;;;;;7.35;3.33;;;7.50;99.90;;;;;;5075632;28;20220;-67
2021/12/01 00:30:41;;;;;;;9.85;3.25;;;7.50;99.90;;;;;;5075267;28;20220;-66
2021/12/01 00:33:10;;;;;;;8.02;4.22;;;7.50;99.90;;;;;;5075028;28;20212;-66
2021/12/01 00:35:39;;;;;;;6.63;3.17;;;7.50;99.90;;;;;;5073624;28;20247;-66
2021/12/01 00:38:06;;;;;;;9.27;2.50;;;7.50;99.90;;;;;;5064048;28;20224;-66
2021/12/01 00:40:33;;;;;;;5.25;2.60;;;7.50;99.90;;;;;;5075133;28;20555;-66
2021/12/01 00:43:00;;;;;;;5.53;2.75;;;7.50;99.90;;;;;;5074660;28;20223;-66
2021/12/01 00:45:28;;;;;;;4.40;2.00;;;7.50;99.90;;;;;;5075150;28;20259;-67
2021/12/01 00:47:56;;;;;;;7.03;2.67;;;7.50;99.90;;;;;;5074448;28;20220;-66
2021/12/01 00:50:25;;;;;;;5.72;2.53;;;7.40;99.90;;;;;;5074980;28;20228;-66
2021/12/01 00:52:56;;;;;;;6.13;2.30;;;7.40;99.90;;;;;;5074621;28;20231;-66
2021/12/01 00:55:24;;;;;;;9.70;3.00;;;7.40;99.90;;;;;;5075206;28;20228;-66
2021/12/01 00:57:54;;;;;;;5.22;2.78;;;7.40;99.90;;;;;;5072208;28;20215;-67
2021/12/01 01:00:30;;;;;;;5.30;1.83;;;7.40;99.90;;;;;;5073932;28;20290;-66
2021/12/01 01:02:57;;;;;;;7.40;2.47;;;7.40;99.90;;;;;;5074497;28;20223;-66
2021/12/01 01:05:25;;;;;;;70.47;44.63;;;7.40;99.90;;;;;;5075232;28;20693;-67
2021/12/01 01:07:52;;;;;;;87.55;54.65;;;7.40;99.90;;;;;;5074481;28;20216;-67
2021/12/01 01:10:34;;;;;;;10.43;6.63;;;7.60;99.90;;;;;;5074852;28;20224;-66
2021/12/01 01:18:38;;;;;;;8.82;2.72;;;7.60;99.90;;;;;;5060942;28;20704;-66
2021/12/01 01:21:06;;;;;;;4.93;1.92;;;7.60;99.90;;;;;;5072941;28;20570;-66
2021/12/01 01:23:34;;;;;;;9.20;2.67;;;7.60;99.90;;;;;;5073873;28;20224;-67
2021/12/01 01:26:04;;;;;;;3.50;2.05;;;7.60;99.90;;;;;;5073514;28;20224;-66
2021/12/01 01:28:32;;;;;;;3.90;1.83;;;7.60;99.90;;;;;;5072493;28;20650;-66
2021/12/01 01:30:59;;;;;;;5.93;3.80;;;7.60;99.90;;;;;;5072502;28;20242;-67
2021/12/01 01:33:27;;;;;;;3.60;2.45;;;7.60;99.90;;;;;;5072700;28;20232;-67
2021/12/01 01:35:54;;;;;;;3.53;1.90;;;7.60;99.90;;;;;;5072102;28;20232;-66
2021/12/01 01:38:21;;;;;;;2.10;1.65;;;7.60;99.90;;;;;;5072727;28;20244;-66
2021/12/01 01:40:48;;;;;;;8.05;2.58;;;7.60;99.90;;;;;;5071923;28;20736;-67
2021/12/01 01:43:16;;;;;;;6.80;4.00;;;7.60;99.90;;;;;;5074108;28;20250;-66
2021/12/01 01:45:43;;;;;;;8.35;2.75;;;7.60;99.90;;;;;;5074126;28;20227;-66
2021/12/01 01:48:13;;;;;;;6.40;3.17;;;7.60;99.90;;;;;;5073745;28;20231;-66
2021/12/01 01:50:42;;;;;;;5.57;2.55;;;7.50;99.90;;;;;;5073299;28;20228;-66
2021/12/01 01:53:11;;;;;;;5.40;2.55;;;7.50;99.90;;;;;;5073826;28;20231;-66
2021/12/01 01:55:41;;;;;;;7.35;3.08;;;7.50;99.90;;;;;;5074065;28;20235;-66
2021/12/01 01:58:08;;;;;;;6.25;1.80;;;7.50;99.90;;;;;;5069651;28;20592;-66
2021/12/01 02:00:44;;;;;;;9.65;3.70;;;7.50;99.90;;;;;;5074097;28;20720;-66
2021/12/01 02:03:11;;;;;;;5.78;2.50;;;7.50;99.90;;;;;;5073408;28;20215;-66
2021/12/01 02:05:38;;;;;;;5.15;2.78;;;7.60;99.90;;;;;;5073874;28;20321;-66
2021/12/01 02:08:14;;;;;;;7.72;2.92;;;7.60;99.90;;;;;;5073419;28;20224;-66
2021/12/01 02:10:41;;;;;;;7.63;3.40;;;7.50;99.90;;;;;;5073760;28;20697;-66
2021/12/01 02:13:08;;;;;;;7.80;3.28;;;7.60;99.90;;;;;;5073240;28;20231;-66
2021/12/01 02:15:37;;;;;;;10.18;3.45;;;7.60;99.90;;;;;;5073154;28;20228;-66
2021/12/01 02:18:04;;;;;;;6.72;3.22;;;7.60;99.90;;;;;;5073418;28;20230;-66
2021/12/01 02:20:32;;;;;;;4.90;2.53;;;7.60;99.90;;;;;;5073479;28;20228;-66
2021/12/01 02:23:00;;;;;;;5.28;2.65;;;7.60;99.90;;;;;;5072999;28;20230;-66
2021/12/01 02:25:28;;;;;;;10.27;2.90;;;7.60;99.90;;;;;;5073108;28;20224;-66
2021/12/01 02:27:55;;;;;;;6.72;2.80;;;7.60;99.90;;;;;;5073158;28;20228;-66
2021/12/01 02:30:23;;;;;;;5.95;2.70;;;7.60;99.90;;;;;;5072986;28;20238;-66
2021/12/01 02:32:50;;;;;;;6.43;2.67;;;7.60;99.90;;;;;;5073003;28;20220;-66
2021/12/01 02:35:17;;;;;;;6.15;3.38;;;7.60;99.90;;;;;;5072653;28;20227;-66
2021/12/01 02:37:45;;;;;;;7.25;3.90;;;7.60;99.90;;;;;;5073162;28;20224;-66
2021/12/01 02:40:13;;;;;;;6.70;2.70;;;7.60;99.90;;;;;;5072924;28;20231;-66
2021/12/01 02:42:40;;;;;;;11.45;3.50;;;7.60;99.90;;;;;;5073351;28;20231;-67
2021/12/01 02:45:08;;;;;;;13.60;4.57;;;7.60;99.90;;;;;;5072666;28;20243;-66
2021/12/01 02:47:35;;;;;;;30.05;17.65;;;7.60;99.90;;;;;;5073085;28;20231;-66
2021/12/01 02:50:02;;;;;;;11.88;4.40;;;7.60;99.90;;;;;;5072083;28;20243;-66
2021/12/01 02:52:33;;;;;;;7.47;2.67;;;7.60;99.90;;;;;;5072801;28;20594;-66
2021/12/01 02:55:04;;;;;;;8.35;2.70;;;7.60;99.90;;;;;;5072363;28;20228;-66
2021/12/01 02:57:42;;;;;;;13.77;3.38;;;7.60;99.90;;;;;;5064181;28;20270;-66
2021/12/01 03:00:10;;;;;;;184.82;143.68;;;7.60;99.90;;;;;;5070812;28;20235;-66
2021/12/01 03:02:40;;;;;;;23.25;12.82;;;7.80;99.90;;;;;;5073111;28;20220;-66
2021/12/01 03:05:09;;;;;;;11.70;6.28;;;7.80;99.90;;;;;;5072182;28;20588;-67
2021/12/01 03:07:38;;;;;;;7.18;3.53;;;7.80;99.90;;;;;;5072618;28;20219;-66
2021/12/01 03:10:07;;;;;;;6.72;2.53;;;7.90;99.90;;;;;;5072427;28;20261;-67
2021/12/01 03:12:36;;;;;;;9.77;2.92;;;7.90;99.90;;;;;;5072608;28;20243;-66
2021/12/01 03:15:05;;;;;;;9.65;3.20;;;7.90;99.90;;;;;;5065116;28;20220;-66
2021/12/01 03:17:33;;;;;;;7.03;2.72;;;7.90;99.90;;;;;;5071586;28;20696;-67
2021/12/01 03:20:00;;;;;;;9.13;3.70;;;7.80;99.90;;;;;;5072037;28;20220;-66
2021/12/01 03:22:27;;;;;;;6.43;2.80;;;7.80;99.90;;;;;;5072526;28;20249;-67
2021/12/01 03:24:56;;;;;;;9.20;3.20;;;7.80;99.90;;;;;;5072553;28;20220;-66
2021/12/01 03:27:24;;;;;;;14.30;5.13;;;7.80;99.90;;;;;;5072033;28;20224;-66
2021/12/01 03:29:51;;;;;;;14.25;3.30;;;7.70;99.90;;;;;;5072286;28;20235;-67
2021/12/01 03:32:20;;;;;;;37.65;20.17;;;7.70;99.90;;;;;;5072059;28;20238;-67
2021/12/01 03:34:47;;;;;;;12.65;6.40;;;7.70;99.90;;;;;;5072047;28;20684;-67
2021/12/01 03:37:14;;;;;;;11.30;3.70;;;7.80;99.90;;;;;;5071755;28;20242;-67
2021/12/01 03:39:41;;;;;;;10.90;3.38;;;7.80;99.90;;;;;;5072060;28;20232;-67
2021/12/01 03:42:08;;;;;;;10.63;2.55;;;7.80;99.90;;;;;;5071835;28;20608;-67
2021/12/01 03:44:37;;;;;;;6.32;2.80;;;7.80;99.90;;;;;;5071237;28;20216;-67
2021/12/01 03:47:04;;;;;;;11.20;2.90;;;7.80;99.90;;;;;;5071931;28;20235;-67
2021/12/01 03:49:31;;;;;;;5.32;3.33;;;7.70;99.90;;;;;;5071669;28;20224;-67
2021/12/01 03:51:58;;;;;;;10.68;3.30;;;7.80;99.90;;;;;;5071535;28;20216;-66
2021/12/01 03:54:26;;;;;;;8.10;3.10;;;7.70;99.90;;;;;;5072086;28;20219;-67
2021/12/01 03:56:53;;;;;;;8.43;3.58;;;7.70;99.90;;;;;;5071255;28;20228;-67
2021/12/01 03:59:20;;;;;;;6.18;2.80;;;7.70;99.90;;;;;;5071243;28;20224;-67
2021/12/01 04:01:48;;;;;;;11.73;6.45;;;7.70;99.90;;;;;;5072277;28;20247;-67
2021/12/01 04:04:15;;;;;;;16.60;3.25;;;7.70;99.90;;;;;;5070367;28;20739;-67
2021/12/01 04:06:42;;;;;;;11.27;3.22;;;7.70;99.90;;;;;;5069950;28;20220;-67
2021/12/01 04:09:09;;;;;;;9.35;4.05;;;7.60;99.90;;;;;;5070167;28;20227;-67
2021/12/01 04:11:37;;;;;;;5.82;3.45;;;7.60;99.90;;;;;;5066305;28;20652;-67
2021/12/01 04:14:04;;;;;;;13.48;3.45;;;7.60;99.90;;;;;;5069808;28;20220;-68
2021/12/01 04:16:31;;;;;;;5.05;2.90;;;7.60;99.90;;;;;;5070085;28;20234;-67
2021/12/01 04:18:59;;;;;;;10.75;4.75;;;7.50;99.90;;;;;;5071453;28;20246;-67
2021/12/01 04:21:27;;;;;;;6.70;3.47;;;7.50;99.90;;;;;;5071716;28;20235;-67
2021/12/01 04:23:54;;;;;;;3.65;2.22;;;7.50;99.90;;;;;;5071437;28;20219;-67
2021/12/01 04:26:24;;;;;;;7.45;3.58;;;7.50;99.90;;;;;;5071804;28;20307;-67
2021/12/01 04:28:51;;;;;;;11.63;3.70;;;7.50;99.90;;;;;;5072414;28;20238;-67
2021/12/01 04:31:18;;;;;;;6.05;2.58;;;7.50;99.90;;;;;;5071282;28;20239;-67
2021/12/01 04:33:46;;;;;;;7.28;3.00;;;7.50;99.90;;;;;;5072252;28;20289;-66
2021/12/01 04:36:16;;;;;;;4.30;2.20;;;7.50;99.90;;;;;;5071653;28;20574;-67
2021/12/01 04:38:43;;;;;;;5.80;2.28;;;7.60;99.90;;;;;;5071630;28;20228;-67
2021/12/01 04:41:13;;;;;;;9.02;2.55;;;7.60;99.90;;;;;;5071394;28;20228;-67
2021/12/01 04:43:40;;;;;;;4.90;2.38;;;7.60;99.90;;;;;;5072011;28;20220;-66
2021/12/01 04:46:08;;;;;;;6.75;2.45;;;7.60;99.90;;;;;;5070491;28;20220;-66
2021/12/01 04:48:37;;;;;;;7.32;3.55;;;7.70;99.90;;;;;;5071246;28;20303;-67
2021/12/01 04:51:03;;;;;;;8.95;2.83;;;7.70;99.90;;;;;;5071337;28;20232;-67
2021/12/01 04:53:32;;;;;;;9.65;3.95;;;7.70;99.90;;;;;;5070929;28;20925;-67
2021/12/01 04:55:59;;;;;;;8.70;4.00;;;7.70;99.90;;;;;;5072009;28;20395;-67
2021/12/01 04:58:27;;;;;;;13.05;5.15;;;7.70;99.90;;;;;;5074757;28;20235;-67
2021/12/01 05:00:55;;;;;;;17.60;6.38;;;7.70;99.90;;;;;;5074907;28;20228;-67
2021/12/01 05:03:21;;;;;;;15.27;6.95;;;7.80;99.90;;;;;;5074817;28;20232;-67
2021/12/01 05:05:48;;;;;;;6.65;3.50;;;7.70;99.90;;;;;;5075948;28;20291;-67
2021/12/01 05:08:16;;;;;;;5.68;3.17;;;7.70;99.90;;;;;;5075354;28;20224;-67
2021/12/01 05:10:44;;;;;;;6.65;3.40;;;7.70;99.90;;;;;;5075492;28;20290;-67
2021/12/01 05:13:11;;;;;;;6.50;2.47;;;7.70;99.90;;;;;;5075304;28;20224;-67
2021/12/01 05:15:38;;;;;;;12.70;5.15;;;7.70;99.90;;;;;;5075433;28;20224;-67
2021/12/01 05:18:05;;;;;;;7.10;3.25;;;7.70;99.90;;;;;;5075090;28;20236;-67
2021/12/01 05:20:31;;;;;;;12.90;5.13;;;7.60;99.90;;;;;;5074437;28;20348;-67
2021/12/01 05:22:58;;;;;;;4.88;3.67;;;7.60;99.90;;;;;;5055395;28;20229;-67
2021/12/01 05:25:25;;;;;;;9.43;3.25;;;7.60;99.90;;;;;;5055008;28;20220;-67
2021/12/01 05:27:54;;;;;;;7.25;2.55;;;7.60;99.90;;;;;;5055429;28;20235;-67
2021/12/01 05:30:21;;;;;;;15.65;5.75;;;7.60;99.90;;;;;;5055052;28;20235;-67
2021/12/01 05:32:48;;;;;;;8.35;3.00;;;7.60;99.90;;;;;;5055325;28;20220;-67
2021/12/01 05:35:15;;;;;;;6.72;4.53;;;7.60;99.90;;;;;;5054719;28;20248;-67
2021/12/01 05:37:42;;;;;;;9.57;3.40;;;7.60;99.90;;;;;;5074739;28;20232;-67
2021/12/01 05:40:10;;;;;;;17.38;5.75;;;7.60;99.90;;;;;;5075068;28;20297;-67
2021/12/01 05:42:37;;;;;;;9.10;3.55;;;7.50;99.90;;;;;;5075321;28;20239;-67
2021/12/01 05:45:07;;;;;;;3.55;2.28;;;7.60;99.90;;;;;;5075028;28;20228;-67
2021/12/01 05:47:34;;;;;;;12.35;4.22;;;7.50;99.90;;;;;;5074735;28;20220;-67
2021/12/01 05:50:01;;;;;;;7.72;3.40;;;7.60;99.90;;;;;;5068158;28;20251;-67
2021/12/01 05:52:28;;;;;;;9.20;5.30;;;7.50;99.90;;;;;;5072947;28;20228;-67
2021/12/01 05:54:55;;;;;;;5.75;2.97;;;7.50;99.90;;;;;;5074920;28;20224;-67
2021/12/01 05:57:22;;;;;;;11.23;5.38;;;7.50;99.90;;;;;;5074327;28;20239;-66
2021/12/01 05:59:49;;;;;;;11.05;4.82;;;7.40;99.90;;;;;;5074630;28;20231;-67
2021/12/01 06:02:17;;;;;;;6.32;3.30;;;7.40;99.90;;;;;;5072508;28;20231;-67
2021/12/01 06:04:44;;;;;;;6.80;2.90;;;7.40;99.90;;;;;;5056942;28;20291;-67
2021/12/01 06:07:11;;;;;;;7.43;5.00;;;7.40;99.90;;;;;;5073575;28;20242;-67
2021/12/01 06:09:38;;;;;;;7.55;3.70;;;7.30;99.90;;;;;;5074002;28;20237;-67
2021/12/01 06:12:07;;;;;;;6.05;4.30;;;7.30;99.90;;;;;;5059826;28;20236;-66
2021/12/01 06:14:35;;;;;;;6.60;3.00;;;7.30;99.90;;;;;;5067487;28;20240;-66
2021/12/01 06:17:02;;;;;;;77.80;54.75;;;7.30;99.90;;;;;;5074394;28;20232;-66
2021/12/01 06:19:31;;;;;;;16.35;8.15;;;7.40;99.90;;;;;;5073777;28;20236;-66
2021/12/01 06:21:58;;;;;;;8.88;3.83;;;7.50;99.90;;;;;;5074089;28;20243;-66
2021/12/01 06:24:25;;;;;;;7.90;4.22;;;7.50;99.90;;;;;;5073836;28;20612;-66
2021/12/01 06:26:52;;;;;;;10.52;5.05;;;7.50;99.90;;;;;;5074045;28;20239;-66
2021/12/01 06:29:19;;;;;;;6.15;4.38;;;7.50;99.90;;;;;;5073753;28;20228;-66
2021/12/01 06:31:45;;;;;;;7.00;4.57;;;7.50;99.90;;;;;;5074365;28;20670;-67
2021/12/01 06:34:12;;;;;;;7.55;5.28;;;7.40;99.90;;;;;;5073886;28;20600;-67
2021/12/01 06:36:41;;;;;;;7.13;3.40;;;7.40;99.90;;;;;;5073395;28;20235;-67
2021/12/01 06:39:09;;;;;;;7.82;4.32;;;7.40;99.90;;;;;;5073657;28;20219;-67
2021/12/01 06:41:37;;;;;;;10.48;4.47;;;7.30;99.90;;;;;;5073351;28;20646;-66
2021/12/01 06:44:04;;;;;;;6.82;5.15;;;7.30;99.90;;;;;;5073506;28;20231;-67
2021/12/01 06:46:31;;;;;;;7.13;6.00;;;7.30;99.90;;;;;;5064226;28;20690;-67
2021/12/01 06:48:59;;;;;;;7.63;4.60;;;7.30;99.90;;;;;;5064670;28;20646;-66
2021/12/01 06:51:26;;;;;;;7.22;4.50;;;7.40;99.90;;;;;;5073348;28;20608;-66
2021/12/01 06:53:55;;;;;;;5.07;4.20;;;7.40;99.90;;;;;;5072622;28;20235;-66
2021/12/01 06:56:22;;;;;;;5.72;3.50;;;7.40;99.90;;;;;;5073035;28;20224;-67
2021/12/01 06:58:49;;;;;;;6.20;4.50;;;7.50;99.90;;;;;;5073085;28;20220;-66
2021/12/01 07:01:17;;;;;;;7.68;3.97;;;7.40;99.90;;;;;;5072543;28;20250;-66
2021/12/01 07:03:44;;;;;;;7.07;3.70;;;7.40;99.90;;;;;;5073538;28;20223;-67
2021/12/01 07:06:11;;;;;;;5.40;4.65;;;7.40;99.90;;;;;;5073464;28;20573;-67
2021/12/01 07:08:38;;;;;;;5.40;4.90;;;7.50;99.90;;;;;;5072928;28;20220;-67
2021/12/01 07:11:07;;;;;;;10.40;6.97;;;7.50;99.90;;;;;;5073117;28;20254;-67
2021/12/01 07:13:34;;;;;;;4.60;3.95;;;7.50;99.90;;;;;;5072864;28;20670;-67
2021/12/01 07:16:01;;;;;;;5.50;3.95;;;7.50;99.90;;;;;;5072535;28;20228;-67
2021/12/01 07:18:28;;;;;;;9.48;5.35;;;7.60;99.90;;;;;;5059221;28;20228;-67
2021/12/01 07:20:55;;;;;;;5.47;3.92;;;7.60;99.90;;;;;;5053137;28;20594;-65
2021/12/01 07:23:23;;;;;;;6.22;3.53;;;7.60;99.90;;;;;;5052794;28;20224;-66
2021/12/01 07:25:50;;;;;;;3.88;3.47;;;7.70;99.90;;;;;;5053298;28;20600;-66
2021/12/01 07:28:18;;;;;;;5.63;4.07;;;7.70;99.90;;;;;;5053373;28;20241;-66
2021/12/01 07:30:45;;;;;;;7.35;4.53;;;7.80;99.90;;;;;;5052691;28;21007;-66
2021/12/01 07:33:12;;;;;;;4.68;4.28;;;7.70;99.90;;;;;;5053076;28;20239;-68
2021/12/01 07:35:39;;;;;;;9.75;7.78;;;7.70;99.90;;;;;;5065934;28;20708;-66
2021/12/01 07:38:06;;;;;;;7.18;6.47;;;7.70;99.90;;;;;;5072712;28;20236;-66
2021/12/01 07:40:33;;;;;;;5.85;4.85;;;7.70;99.90;;;;;;5070894;28;20220;-65
2021/12/01 07:43:00;;;;;;;15.45;11.00;;;7.80;99.90;;;;;;5058830;28;20231;-66
2021/12/01 07:45:29;;;;;;;4.30;4.00;;;7.70;99.90;;;;;;5069137;28;20254;-66
2021/12/01 07:47:56;;;;;;;7.35;4.65;;;7.70;99.90;;;;;;5072557;28;20252;-66
2021/12/01 07:50:23;;;;;;;5.57;4.60;;;7.70;99.90;;;;;;5063230;28;20264;-65
2021/12/01 07:52:50;;;;;;;10.02;7.43;;;7.70;99.90;;;;;;5060426;28;20228;-66
2021/12/01 07:55:18;;;;;;;8.95;8.13;;;7.80;99.90;;;;;;5072620;28;20228;-65
2021/12/01 07:57:46;;;;;;;24.23;18.50;;;7.80;99.90;;;;;;5072161;28;20247;-66
2021/12/01 08:00:14;;;;;;;10.00;9.10;;;7.90;99.90;;;;;;5072396;28;20310;-66
2021/12/01 08:02:45;;;;;;;5.80;5.30;;;8.00;99.90;;;;;;5072241;28;20224;-65
2021/12/01 08:05:12;;;;;;;4.95;4.55;;;8.00;99.90;;;;;;5072182;28;20697;-64
2021/12/01 08:07:40;;;;;;;6.03;5.57;;;8.10;99.90;;;;;;5071946;28;20307;-64
2021/12/01 08:10:08;;;;;;;6.53;5.32;;;8.10;99.90;;;;;;5072257;28;20234;-64
2021/12/01 08:12:35;;;;;;;6.45;5.30;;;8.10;99.90;;;;;;5071956;28;20231;-64
2021/12/01 08:15:03;;;;;;;5.10;4.70;;;8.10;99.90;;;;;;5072176;28;20223;-64
2021/12/01 08:17:30;;;;;;;4.75;4.00;;;8.10;99.90;;;;;;5071970;28;20231;-64
2021/12/01 08:19:58;;;;;;;5.45;5.05;;;8.20;99.90;;;;;;5072400;28;20235;-64
2021/12/01 08:22:25;;;;;;;5.55;4.95;;;8.20;99.90;;;;;;5071894;28;20306;-64
2021/12/01 08:24:54;;;;;;;5.57;5.13;;;8.30;99.90;;;;;;5072664;28;20236;-64
2021/12/01 08:27:21;;;;;;;6.00;5.18;;;8.40;99.90;;;;;;5072229;28;20670;-64
2021/12/01 08:29:48;;;;;;;6.13;5.63;;;8.40;99.90;;;;;;5071906;28;20228;-64
2021/12/01 08:32:15;;;;;;;5.68;5.18;;;8.40;99.90;;;;;;5075286;28;20235;-64
2021/12/01 08:34:44;;;;;;;7.15;6.55;;;8.40;99.90;;;;;;5075723;28;20231;-64
2021/12/01 08:37:13;;;;;;;4.82;4.43;;;8.50;99.90;;;;;;5075763;28;20247;-65
2021/12/01 08:39:41;;;;;;;7.57;5.22;;;8.50;99.90;;;;;;5075508;28;20220;-64
2021/12/01 08:42:10;;;;;;;5.30;5.00;;;8.50;99.90;;;;;;5075921;28;20224;-64
2021/12/01 08:44:37;;;;;;;4.90;4.50;;;8.50;99.90;;;;;;5075623;28;20236;-64
2021/12/01 08:47:05;;;;;;;8.25;5.80;;;8.50;99.90;;;;;;5076013;28;20228;-64
2021/12/01 08:49:32;;;;;;;5.10;4.80;;;8.60;99.90;;;;;;5082807;28;20661;-64
2021/12/01 08:51:59;;;;;;;5.20;4.80;;;8.50;99.90;;;;;;5077154;28;20235;-64
2021/12/01 08:54:27;;;;;;;4.85;4.45;;;8.60;99.90;;;;;;5075855;28;20223;-63
2021/12/01 08:56:54;;;;;;;5.28;4.88;;;8.70;99.90;;;;;;5075428;28;20231;-64
2021/12/01 08:59:21;;;;;;;5.57;5.18;;;8.60;99.90;;;;;;5075754;28;20220;-64
2021/12/01 09:01:48;;;;;;;6.20;5.05;;;8.60;99.90;;;;;;5075478;28;20220;-64
2021/12/01 09:04:14;;;;;;;4.85;4.55;;;8.60;99.90;;;;;;5075553;28;20228;-64
2021/12/01 09:06:41;;;;;;;5.05;4.65;;;8.60;99.90;;;;;;5075148;28;20216;-64
2021/12/01 09:09:09;;;;;;;4.97;4.60;;;8.60;99.90;;;;;;5075751;28;20306;-64
2021/12/01 09:11:37;;;;;;;5.35;4.85;;;8.60;99.90;;;;;;5075123;28;20248;-64
2021/12/01 09:14:04;;;;;;;4.72;4.32;;;8.60;99.90;;;;;;5075465;28;20674;-64
2021/12/01 09:16:31;;;;;;;3.72;3.42;;;8.60;99.90;;;;;;5074882;28;20248;-64
2021/12/01 09:18:58;;;;;;;6.32;3.80;;;8.60;99.90;;;;;;5075376;28;20224;-64
2021/12/01 09:21:25;;;;;;;4.10;3.70;;;8.60;99.90;;;;;;5068313;28;20239;-64
2021/12/01 09:23:52;;;;;;;12.23;9.13;;;8.60;99.90;;;;;;5074792;28;20546;-64
2021/12/01 09:26:19;;;;;;;13.30;10.90;;;8.60;99.90;;;;;;5075282;28;20228;-64
2021/12/01 09:28:48;;;;;;;8.15;7.35;;;8.70;99.90;;;;;;5074697;28;20228;-64
2021/12/01 09:31:15;;;;;;;3.92;3.60;;;8.70;99.90;;;;;;5075083;28;20224;-64
2021/12/01 09:33:42;;;;;;;4.57;3.67;;;8.70;99.90;;;;;;5074608;28;20230;-64
2021/12/01 09:36:09;;;;;;;3.20;2.90;;;8.80;99.90;;;;;;5074706;28;20230;-63
2021/12/01 09:38:36;;;;;;;4.25;3.70;;;8.70;99.90;;;;;;5074136;28;20247;-63
2021/12/01 09:41:04;;;;;;;4.10;3.70;;;8.70;99.90;;;;;;5075067;28;20650;-63
2021/12/01 09:43:31;;;;;;;3.47;3.17;;;8.80;99.90;;;;;;5073675;28;20220;-63
2021/12/01 09:46:04;;;;;;;3.88;3.45;;;8.70;99.90;;;;;;5074599;28;20216;-63
2021/12/01 09:48:32;;;;;;;3.90;3.40;;;8.70;99.90;;;;;;5074753;28;20672;-63
2021/12/01 09:50:59;;;;;;;3.60;3.30;;;8.80;99.90;;;;;;5083491;28;20224;-63
2021/12/01 09:53:26;;;;;;;6.80;4.07;;;8.80;99.90;;;;;;5074686;28;20219;-63
2021/12/01 09:55:53;;;;;;;3.40;3.00;;;8.70;99.90;;;;;;5074173;28;20228;-63
2021/12/01 09:58:22;;;;;;;3.05;2.63;;;8.70;99.90;;;;;;5074612;28;20223;-63
2021/12/01 10:00:53;;;;;;;6.47;3.67;;;8.70;99.90;;;;;;5056383;28;20228;-63
2021/12/01 10:03:22;;;;;;;6.40;4.65;;;8.70;99.90;;;;;;5074042;28;20227;-63
2021/12/01 10:06:03;;;;;;;7.97;5.78;;;8.70;99.90;;;;;;5074093;28;20216;-63
2021/12/01 10:08:33;;;;;;;7.60;6.90;;;8.70;99.90;;;;;;5074313;28;20250;-63
2021/12/01 10:11:04;;;;;;;6.00;5.40;;;8.80;99.90;;;;;;5073518;28;20235;-63
2021/12/01 10:13:33;;;;;;;5.70;5.20;;;8.80;99.90;;;;;;5074264;28;20223;-63
2021/12/01 10:16:03;;;;;;;4.05;3.67;;;8.80;99.90;;;;;;5064134;28;20223;-63
2021/12/01 10:18:37;;;;;;;7.93;6.75;;;8.90;99.90;;;;;;5074124;28;20681;-63
2021/12/01 10:21:06;;;;;;;3.28;2.72;;;9.00;99.90;;;;;;5073646;28;20796;-63
2021/12/01 10:23:35;;;;;;;3.30;3.00;;;9.00;99.90;;;;;;5074157;28;20302;-64
2021/12/01 10:26:09;;;;;;;4.45;3.10;;;9.00;99.90;;;;;;5073881;28;20247;-63
2021/12/01 10:28:38;;;;;;;5.47;3.85;;;9.00;99.90;;;;;;5074190;28;20250;-63
2021/12/01 10:31:05;;;;;;;3.63;2.75;;;9.00;99.90;;;;;;5059862;28;20217;-63
2021/12/01 10:33:33;;;;;;;3.03;2.83;;;9.00;99.90;;;;;;5073893;28;20232;-63
2021/12/01 10:36:02;;;;;;;2.38;2.15;;;9.00;99.90;;;;;;5073208;28;20227;-63
2021/12/01 10:38:32;;;;;;;2.35;2.20;;;9.00;99.90;;;;;;5073398;28;20236;-63
2021/12/01 10:41:14;;;;;;;5.15;2.63;;;9.10;99.90;;;;;;5073406;28;20735;-63
2021/12/01 10:43:44;;;;;;;3.33;2.95;;;9.20;99.90;;;;;;5056251;28;20227;-63
2021/12/01 10:46:13;;;;;;;4.32;3.33;;;9.20;99.90;;;;;;5073646;28;20742;-63
2021/12/01 10:48:42;;;;;;;3.10;2.90;;;9.30;99.90;;;;;;5073695;28;20693;-63
2021/12/01 10:51:12;;;;;;;5.28;4.00;;;9.30;99.90;;;;;;5073472;28;20229;-63
2021/12/01 10:53:39;;;;;;;5.25;3.80;;;9.30;99.90;;;;;;5067929;28;20224;-64
2021/12/01 10:56:08;;;;;;;7.45;6.75;;;9.40;99.90;;;;;;5072625;28;20227;-64
2021/12/01 10:58:38;;;;;;;7.88;7.07;;;9.50;99.90;;;;;;5073338;28;20228;-63
2021/12/01 11:01:07;;;;;;;5.35;3.42;;;9.50;99.90;;;;;;5072854;28;20232;-63
2021/12/01 11:03:35;;;;;;;5.53;5.03;;;9.40;99.90;;;;;;5073393;28;20224;-64
2021/12/01 11:06:12;;;;;;;3.70;3.45;;;9.50;99.90;;;;;;5072960;28;20231;-64
2021/12/01 11:08:41;;;;;;;3.67;3.28;;;9.40;99.90;;;;;;5073480;28;20220;-63
2021/12/01 11:11:10;;;;;;;3.30;3.00;;;9.40;99.90;;;;;;5072677;28;20229;-64
2021/12/01 11:13:40;;;;;;;11.90;8.20;;;9.40;99.90;;;;;;5073010;28;20292;-63
2021/12/01 11:16:10;;;;;;;4.47;3.45;;;9.50;99.90;;;;;;5072896;28;20228;-63
2021/12/01 11:18:39;;;;;;;3.97;3.65;;;9.40;99.90;;;;;;5072749;28;20228;-64
2021/12/01 11:21:13;;;;;;;4.43;4.03;;;9.50;99.90;;;;;;5069409;28;20286;-63
2021/12/01 11:23:41;;;;;;;3.45;3.20;;;9.50;99.90;;;;;;5068939;28;20313;-63
2021/12/01 11:26:10;;;;;;;6.18;5.57;;;9.50;99.90;;;;;;5072214;28;20230;-63
2021/12/01 11:28:40;;;;;;;3.88;2.80;;;9.50;99.90;;;;;;5072620;28;20216;-64
2021/12/01 11:31:09;;;;;;;3.53;3.33;;;9.60;99.90;;;;;;5072455;28;20223;-63
2021/12/01 11:33:37;;;;;;;3.10;2.80;;;9.60;99.90;;;;;;5072619;28;20224;-63
2021/12/01 11:36:07;;;;;;;4.13;3.83;;;9.50;99.90;;;;;;5061585;28;20212;-63
2021/12/01 11:38:36;;;;;;;4.93;4.00;;;9.50;99.90;;;;;;5072426;28;20746;-62
2021/12/01 11:41:05;;;;;;;4.18;2.97;;;9.50;99.90;;;;;;5071986;28;20236;-63
2021/12/01 11:43:35;;;;;;;3.70;3.40;;;9.40;99.90;;;;;;5072739;28;20234;-63
2021/12/01 11:46:03;;;;;;;6.20;5.50;;;9.50;99.90;;;;;;5069866;28;20241;-62
2021/12/01 11:48:33;;;;;;;3.92;3.45;;;9.40;99.90;;;;;;5061451;28;20223;-63
2021/12/01 11:51:14;;;;;;;10.05;6.65;;;9.40;99.90;;;;;;5050723;28;20598;-63
2021/12/01 11:53:45;;;;;;;4.07;3.78;;;9.30;99.90;;;;;;5050982;28;20244;-63
2021/12/01 11:56:18;;;;;;;2.72;2.53;;;9.30;99.90;;;;;;5050390;28;20574;-63
2021/12/01 11:58:52;;;;;;;2.72;2.53;;;9.40;99.90;;;;;;5050862;28;20228;-63
2021/12/01 12:01:50;;;;;;;2.20;2.10;;;9.30;99.90;;;;;;5050384;28;20216;-63
2021/12/01 12:04:51;;;;;;;2.88;2.65;;;9.30;99.90;;;;;;5051116;28;20221;-63
2021/12/01 12:07:21;;;;;;;2.40;2.20;;;9.30;99.90;;;;;;5051130;28;20259;-63
2021/12/01 12:10:12;;;;;;;2.53;2.35;;;9.30;99.90;;;;;;5052627;28;20643;-63
2021/12/01 12:12:59;;;;;;;2.67;2.40;;;9.30;99.90;;;;;;5052681;28;20224;-63
2021/12/01 12:15:47;;;;;;;4.80;3.83;;;9.30;99.90;;;;;;5072697;28;20311;-63
2021/12/01 12:18:35;;;;;;;2.55;2.35;;;9.30;99.90;;;;;;5072883;28;20243;-63
2021/12/01 12:21:18;;;;;;;10.63;9.52;;;9.30;99.90;;;;;;5072091;28;20243;-63
2021/12/01 12:23:48;;;;;;;13.25;9.32;;;9.40;99.90;;;;;;5072178;28;20242;-62
2021/12/01 12:26:33;;;;;;;5.53;5.03;;;9.40;99.90;;;;;;5072180;28;20249;-62
2021/12/01 12:29:05;;;;;;;4.03;3.50;;;9.30;99.90;;;;;;5071387;28;20297;-62
2021/12/01 12:31:32;;;;;;;6.25;5.28;;;9.30;99.90;;;;;;5052281;28;20229;-63
2021/12/01 12:34:03;;;;;;;2.28;2.03;;;9.30;99.90;;;;;;5052076;28;20231;-63
2021/12/01 12:36:40;;;;;;;2.40;2.20;;;9.30;99.90;;;;;;5062940;28;20227;-63
2021/12/01 12:39:09;;;;;;;10.07;7.78;;;9.30;99.90;;;;;;5053813;28;20311;-62
2021/12/01 12:42:09;;;;;;;9.23;6.05;;;9.30;99.90;;;;;;5069199;28;20531;-62
2021/12/01 12:44:39;;;;;;;8.63;7.07;;;9.30;99.90;;;;;;5049164;28;20220;-62
2021/12/01 12:47:08;;;;;;;6.57;5.28;;;9.30;99.90;;;;;;5051760;28;21009;-62
2021/12/01 12:49:37;;;;;;;3.20;2.63;;;9.30;99.90;;;;;;5068088;28;20235;-62
2021/12/01 12:52:30;;;;;;;2.38;2.00;;;9.30;99.90;;;;;;5070976;28;20654;-62
2021/12/01 12:54:59;;;;;;;4.47;2.60;;;9.40;99.90;;;;;;5071571;28;20601;-62
2021/12/01 12:57:46;;;;;;;1.95;1.85;;;9.40;99.90;;;;;;5071794;28;20573;-62
2021/12/01 13:00:20;;;;;;;2.60;2.00;;;9.40;99.90;;;;;;5071799;28;20646;-62
2021/12/01 13:02:48;;;;;;;1.73;1.63;;;9.40;99.90;;;;;;5062271;28;20227;-63
2021/12/01 13:05:16;;;;;;;2.17;1.98;;;9.50;99.90;;;;;;5050004;28;20794;-62
2021/12/01 13:07:51;;;;;;;3.25;2.85;;;9.50;99.90;;;;;;5050367;28;20224;-63
2021/12/01 13:10:24;;;;;;;4.43;3.97;;;9.50;99.90;;;;;;5049818;28;20922;-63